sensor_id;sensor_type;location;lat;lon;timestamp;P1;durP1;ratioP1;P2;durP2;ratioP2
5277;SDS011;2662;51.194;6.614;2023-11-21T00:01:12;1.23;;;1.20;;
5277;SDS011;2662;51.194;6.614;2023-11-21T00:03:39;2.40;;;1.60;;
5277;SDS011;2662;51.194;6.614;2023-11-21T00:06:06;1.60;;;1.30;;
5277;SDS011;2662;51.194;6.614;2023-11-21T00:08:34;1.90;;;1.30;;
5277;SDS011;2662;51.194;6.614;2023-11-21T00:11:01;2.90;;;1.63;;
5277;SDS011;2662;51.194;6.614;2023-11-21T00:13:30;11.23;;;1.83;;
5277;SDS011;2662;51.194;6.614;2023-11-21T00:15:57;2.93;;;1.83;;
5277;SDS011;2662;51.194;6.614;2023-11-21T00:18:25;1.90;;;1.63;;
5277;SDS011;2662;51.194;6.614;2023-11-21T00:20:53;2.20;;;1.73;;
5277;SDS011;2662;51.194;6.614;2023-11-21T00:23:19;2.20;;;1.53;;
5277;SDS011;2662;51.194;6.614;2023-11-21T00:25:48;1.80;;;1.67;;
5277;SDS011;2662;51.194;6.614;2023-11-21T00:28:17;5.50;;;2.37;;
5277;SDS011;2662;51.194;6.614;2023-11-21T00:30:43;1.60;;;1.50;;
5277;SDS011;2662;51.194;6.614;2023-11-21T00:33:11;4.40;;;2.43;;
5277;SDS011;2662;51.194;6.614;2023-11-21T00:35:39;2.80;;;1.90;;
5277;SDS011;2662;51.194;6.614;2023-11-21T00:38:06;2.43;;;1.80;;
5277;SDS011;2662;51.194;6.614;2023-11-21T00:40:34;4.27;;;2.40;;
5277;SDS011;2662;51.194;6.614;2023-11-21T00:43:01;3.30;;;1.70;;
5277;SDS011;2662;51.194;6.614;2023-11-21T00:45:30;3.20;;;1.83;;
5277;SDS011;2662;51.194;6.614;2023-11-21T00:47:57;1.97;;;1.60;;
5277;SDS011;2662;51.194;6.614;2023-11-21T00:50:27;5.53;;;2.10;;
5277;SDS011;2662;51.194;6.614;2023-11-21T00:52:55;3.83;;;2.07;;
5277;SDS011;2662;51.194;6.614;2023-11-21T00:55:22;3.30;;;2.07;;
5277;SDS011;2662;51.194;6.614;2023-11-21T00:57:50;3.23;;;1.80;;
5277;SDS011;2662;51.194;6.614;2023-11-21T01:00:17;1.80;;;1.67;;
5277;SDS011;2662;51.194;6.614;2023-11-21T01:02:46;5.20;;;2.40;;
5277;SDS011;2662;51.194;6.614;2023-11-21T01:05:13;3.03;;;2.50;;
5277;SDS011;2662;51.194;6.614;2023-11-21T01:07:40;4.43;;;1.87;;
5277;SDS011;2662;51.194;6.614;2023-11-21T01:10:09;4.40;;;2.17;;
5277;SDS011;2662;51.194;6.614;2023-11-21T01:12:35;4.40;;;1.60;;
5277;SDS011;2662;51.194;6.614;2023-11-21T01:15:04;5.13;;;2.07;;
5277;SDS011;2662;51.194;6.614;2023-11-21T01:17:33;3.43;;;2.10;;
5277;SDS011;2662;51.194;6.614;2023-11-21T01:20:00;3.30;;;2.23;;
5277;SDS011;2662;51.194;6.614;2023-11-21T01:22:28;4.37;;;2.90;;
5277;SDS011;2662;51.194;6.614;2023-11-21T01:24:54;3.57;;;2.60;;
5277;SDS011;2662;51.194;6.614;2023-11-21T01:27:24;3.00;;;2.00;;
5277;SDS011;2662;51.194;6.614;2023-11-21T01:29:51;3.53;;;2.00;;
5277;SDS011;2662;51.194;6.614;2023-11-21T01:32:18;3.47;;;2.20;;
5277;SDS011;2662;51.194;6.614;2023-11-21T01:34:45;2.63;;;1.70;;
5277;SDS011;2662;51.194;6.614;2023-11-21T01:37:14;4.40;;;2.40;;
5277;SDS011;2662;51.194;6.614;2023-11-21T01:39:43;4.40;;;2.23;;
5277;SDS011;2662;51.194;6.614;2023-11-21T01:42:10;2.87;;;2.03;;
5277;SDS011;2662;51.194;6.614;2023-11-21T01:44:39;3.30;;;2.10;;
5277;SDS011;2662;51.194;6.614;2023-11-21T01:47:06;4.00;;;2.37;;
5277;SDS011;2662;51.194;6.614;2023-11-21T01:49:35;10.93;;;2.60;;
5277;SDS011;2662;51.194;6.614;2023-11-21T01:52:03;2.40;;;2.03;;
5277;SDS011;2662;51.194;6.614;2023-11-21T01:54:30;3.63;;;2.57;;
5277;SDS011;2662;51.194;6.614;2023-11-21T01:56:57;3.70;;;2.70;;
5277;SDS011;2662;51.194;6.614;2023-11-21T01:59:27;5.67;;;2.60;;
5277;SDS011;2662;51.194;6.614;2023-11-21T02:02:01;4.90;;;2.10;;
5277;SDS011;2662;51.194;6.614;2023-11-21T02:04:30;3.27;;;2.20;;
5277;SDS011;2662;51.194;6.614;2023-11-21T02:06:59;3.17;;;2.00;;
5277;SDS011;2662;51.194;6.614;2023-11-21T02:09:26;4.30;;;2.40;;
5277;SDS011;2662;51.194;6.614;2023-11-21T02:11:56;7.60;;;2.60;;
5277;SDS011;2662;51.194;6.614;2023-11-21T02:14:23;3.23;;;2.20;;
5277;SDS011;2662;51.194;6.614;2023-11-21T02:16:51;6.73;;;2.80;;
5277;SDS011;2662;51.194;6.614;2023-11-21T02:19:23;3.70;;;2.63;;
5277;SDS011;2662;51.194;6.614;2023-11-21T02:21:50;2.93;;;2.07;;
5277;SDS011;2662;51.194;6.614;2023-11-21T02:24:20;5.13;;;2.87;;
5277;SDS011;2662;51.194;6.614;2023-11-21T02:26:47;3.90;;;2.47;;
5277;SDS011;2662;51.194;6.614;2023-11-21T02:29:16;5.27;;;2.20;;
5277;SDS011;2662;51.194;6.614;2023-11-21T02:31:43;2.40;;;1.90;;
5277;SDS011;2662;51.194;6.614;2023-11-21T02:34:14;2.23;;;1.93;;
5277;SDS011;2662;51.194;6.614;2023-11-21T02:36:42;5.30;;;2.70;;
5277;SDS011;2662;51.194;6.614;2023-11-21T02:39:09;6.80;;;2.20;;
5277;SDS011;2662;51.194;6.614;2023-11-21T02:41:38;5.10;;;2.03;;
5277;SDS011;2662;51.194;6.614;2023-11-21T02:44:05;4.10;;;2.23;;
5277;SDS011;2662;51.194;6.614;2023-11-21T02:46:35;2.20;;;2.00;;
5277;SDS011;2662;51.194;6.614;2023-11-21T02:49:05;3.47;;;2.43;;
5277;SDS011;2662;51.194;6.614;2023-11-21T02:51:32;3.27;;;2.50;;
5277;SDS011;2662;51.194;6.614;2023-11-21T02:54:00;4.40;;;2.43;;
5277;SDS011;2662;51.194;6.614;2023-11-21T02:56:30;2.93;;;2.10;;
5277;SDS011;2662;51.194;6.614;2023-11-21T02:58:59;2.17;;;1.97;;
5277;SDS011;2662;51.194;6.614;2023-11-21T03:01:26;3.70;;;2.70;;
5277;SDS011;2662;51.194;6.614;2023-11-21T03:03:54;4.90;;;2.40;;
5277;SDS011;2662;51.194;6.614;2023-11-21T03:06:21;4.00;;;2.40;;
5277;SDS011;2662;51.194;6.614;2023-11-21T03:08:49;2.50;;;2.07;;
5277;SDS011;2662;51.194;6.614;2023-11-21T03:11:17;4.23;;;2.30;;
5277;SDS011;2662;51.194;6.614;2023-11-21T03:13:45;7.03;;;2.43;;
5277;SDS011;2662;51.194;6.614;2023-11-21T03:16:14;4.37;;;2.23;;
5277;SDS011;2662;51.194;6.614;2023-11-21T03:18:42;5.97;;;2.83;;
5277;SDS011;2662;51.194;6.614;2023-11-21T03:21:09;6.00;;;2.73;;
5277;SDS011;2662;51.194;6.614;2023-11-21T03:23:36;3.27;;;1.83;;
5277;SDS011;2662;51.194;6.614;2023-11-21T03:26:04;4.50;;;2.37;;
5277;SDS011;2662;51.194;6.614;2023-11-21T03:28:34;5.53;;;3.13;;
5277;SDS011;2662;51.194;6.614;2023-11-21T03:31:00;3.50;;;2.70;;
5277;SDS011;2662;51.194;6.614;2023-11-21T03:33:29;3.80;;;2.07;;
5277;SDS011;2662;51.194;6.614;2023-11-21T03:35:56;4.70;;;2.33;;
5277;SDS011;2662;51.194;6.614;2023-11-21T03:38:23;4.10;;;2.17;;
5277;SDS011;2662;51.194;6.614;2023-11-21T03:40:51;6.67;;;2.10;;
5277;SDS011;2662;51.194;6.614;2023-11-21T03:43:19;5.63;;;2.83;;
5277;SDS011;2662;51.194;6.614;2023-11-21T03:45:46;6.40;;;2.97;;
5277;SDS011;2662;51.194;6.614;2023-11-21T03:48:14;4.10;;;2.57;;
5277;SDS011;2662;51.194;6.614;2023-11-21T03:50:43;6.27;;;2.90;;
5277;SDS011;2662;51.194;6.614;2023-11-21T03:53:09;4.17;;;2.10;;
5277;SDS011;2662;51.194;6.614;2023-11-21T03:55:39;4.00;;;2.53;;
5277;SDS011;2662;51.194;6.614;2023-11-21T03:58:19;5.07;;;2.90;;
5277;SDS011;2662;51.194;6.614;2023-11-21T04:00:46;2.63;;;2.10;;
5277;SDS011;2662;51.194;6.614;2023-11-21T04:03:15;3.90;;;2.00;;
5277;SDS011;2662;51.194;6.614;2023-11-21T04:05:44;4.77;;;2.60;;
5277;SDS011;2662;51.194;6.614;2023-11-21T04:08:12;3.80;;;2.50;;
5277;SDS011;2662;51.194;6.614;2023-11-21T04:10:39;4.00;;;2.53;;
5277;SDS011;2662;51.194;6.614;2023-11-21T04:13:07;5.07;;;2.60;;
5277;SDS011;2662;51.194;6.614;2023-11-21T04:15:34;4.40;;;2.57;;
5277;SDS011;2662;51.194;6.614;2023-11-21T04:18:01;5.43;;;2.90;;
5277;SDS011;2662;51.194;6.614;2023-11-21T04:20:28;3.63;;;2.20;;
5277;SDS011;2662;51.194;6.614;2023-11-21T04:22:57;4.57;;;2.33;;
5277;SDS011;2662;51.194;6.614;2023-11-21T04:25:24;2.93;;;2.30;;
5277;SDS011;2662;51.194;6.614;2023-11-21T04:27:52;5.40;;;2.20;;
5277;SDS011;2662;51.194;6.614;2023-11-21T04:30:19;5.80;;;2.60;;
5277;SDS011;2662;51.194;6.614;2023-11-21T04:32:52;5.50;;;2.67;;
5277;SDS011;2662;51.194;6.614;2023-11-21T04:35:19;3.30;;;1.87;;
5277;SDS011;2662;51.194;6.614;2023-11-21T04:37:46;7.33;;;1.87;;
5277;SDS011;2662;51.194;6.614;2023-11-21T04:40:14;3.80;;;2.60;;
5277;SDS011;2662;51.194;6.614;2023-11-21T04:42:41;5.30;;;2.40;;
5277;SDS011;2662;51.194;6.614;2023-11-21T04:45:09;2.20;;;1.70;;
5277;SDS011;2662;51.194;6.614;2023-11-21T04:47:37;3.67;;;1.93;;
5277;SDS011;2662;51.194;6.614;2023-11-21T04:50:04;6.17;;;2.00;;
5277;SDS011;2662;51.194;6.614;2023-11-21T04:52:33;3.47;;;1.93;;
5277;SDS011;2662;51.194;6.614;2023-11-21T04:55:01;4.27;;;2.47;;
5277;SDS011;2662;51.194;6.614;2023-11-21T04:57:29;3.43;;;1.43;;
5277;SDS011;2662;51.194;6.614;2023-11-21T04:59:56;7.03;;;2.30;;
5277;SDS011;2662;51.194;6.614;2023-11-21T05:02:23;4.90;;;2.50;;
5277;SDS011;2662;51.194;6.614;2023-11-21T05:04:50;4.60;;;2.40;;
5277;SDS011;2662;51.194;6.614;2023-11-21T05:07:18;2.30;;;1.50;;
5277;SDS011;2662;51.194;6.614;2023-11-21T05:09:46;3.70;;;1.50;;
5277;SDS011;2662;51.194;6.614;2023-11-21T05:12:15;2.30;;;2.03;;
5277;SDS011;2662;51.194;6.614;2023-11-21T05:14:44;3.20;;;2.17;;
5277;SDS011;2662;51.194;6.614;2023-11-21T05:17:13;3.47;;;2.40;;
5277;SDS011;2662;51.194;6.614;2023-11-21T05:19:40;5.90;;;2.13;;
5277;SDS011;2662;51.194;6.614;2023-11-21T05:22:08;5.87;;;2.30;;
5277;SDS011;2662;51.194;6.614;2023-11-21T05:24:36;3.63;;;2.03;;
5277;SDS011;2662;51.194;6.614;2023-11-21T05:27:07;5.67;;;2.20;;
5277;SDS011;2662;51.194;6.614;2023-11-21T05:29:34;4.57;;;2.40;;
5277;SDS011;2662;51.194;6.614;2023-11-21T05:32:05;5.93;;;2.47;;
5277;SDS011;2662;51.194;6.614;2023-11-21T05:34:32;4.47;;;2.83;;
5277;SDS011;2662;51.194;6.614;2023-11-21T05:37:00;5.33;;;2.57;;
5277;SDS011;2662;51.194;6.614;2023-11-21T05:39:30;4.80;;;2.23;;
5277;SDS011;2662;51.194;6.614;2023-11-21T05:41:57;3.10;;;2.23;;
5277;SDS011;2662;51.194;6.614;2023-11-21T05:44:25;4.00;;;2.20;;
5277;SDS011;2662;51.194;6.614;2023-11-21T05:46:52;5.60;;;3.17;;
5277;SDS011;2662;51.194;6.614;2023-11-21T05:49:20;4.10;;;2.70;;
5277;SDS011;2662;51.194;6.614;2023-11-21T05:51:51;3.50;;;2.27;;
5277;SDS011;2662;51.194;6.614;2023-11-21T05:54:19;4.20;;;2.50;;
5277;SDS011;2662;51.194;6.614;2023-11-21T05:56:45;5.10;;;2.73;;
5277;SDS011;2662;51.194;6.614;2023-11-21T05:59:14;5.63;;;2.80;;
5277;SDS011;2662;51.194;6.614;2023-11-21T06:01:41;11.50;;;2.67;;
5277;SDS011;2662;51.194;6.614;2023-11-21T06:04:08;3.70;;;2.20;;
5277;SDS011;2662;51.194;6.614;2023-11-21T06:06:39;6.53;;;2.80;;
5277;SDS011;2662;51.194;6.614;2023-11-21T06:09:06;7.97;;;2.80;;
5277;SDS011;2662;51.194;6.614;2023-11-21T06:11:34;4.23;;;2.77;;
5277;SDS011;2662;51.194;6.614;2023-11-21T06:14:01;6.23;;;2.93;;
5277;SDS011;2662;51.194;6.614;2023-11-21T06:16:30;7.93;;;3.47;;
5277;SDS011;2662;51.194;6.614;2023-11-21T06:18:57;5.57;;;3.07;;
5277;SDS011;2662;51.194;6.614;2023-11-21T06:21:24;5.00;;;2.30;;
5277;SDS011;2662;51.194;6.614;2023-11-21T06:23:52;4.50;;;2.27;;
5277;SDS011;2662;51.194;6.614;2023-11-21T06:26:18;5.03;;;2.67;;
5277;SDS011;2662;51.194;6.614;2023-11-21T06:28:46;7.27;;;2.97;;
5277;SDS011;2662;51.194;6.614;2023-11-21T06:31:17;8.20;;;2.60;;
5277;SDS011;2662;51.194;6.614;2023-11-21T06:33:44;6.67;;;2.83;;
5277;SDS011;2662;51.194;6.614;2023-11-21T06:36:12;4.70;;;2.67;;
5277;SDS011;2662;51.194;6.614;2023-11-21T06:38:41;7.40;;;3.40;;
5277;SDS011;2662;51.194;6.614;2023-11-21T06:41:10;9.93;;;3.30;;
5277;SDS011;2662;51.194;6.614;2023-11-21T06:43:40;8.70;;;3.30;;
5277;SDS011;2662;51.194;6.614;2023-11-21T06:46:10;6.20;;;3.00;;
5277;SDS011;2662;51.194;6.614;2023-11-21T06:48:40;11.90;;;3.10;;
5277;SDS011;2662;51.194;6.614;2023-11-21T06:51:08;6.33;;;2.70;;
5277;SDS011;2662;51.194;6.614;2023-11-21T06:53:35;7.80;;;2.50;;
5277;SDS011;2662;51.194;6.614;2023-11-21T06:56:04;9.50;;;2.73;;
5277;SDS011;2662;51.194;6.614;2023-11-21T06:58:42;5.47;;;2.67;;
5277;SDS011;2662;51.194;6.614;2023-11-21T07:01:10;5.10;;;2.50;;
5277;SDS011;2662;51.194;6.614;2023-11-21T07:03:40;5.43;;;2.70;;
5277;SDS011;2662;51.194;6.614;2023-11-21T07:06:07;5.77;;;2.33;;
5277;SDS011;2662;51.194;6.614;2023-11-21T07:08:36;6.80;;;2.53;;
5277;SDS011;2662;51.194;6.614;2023-11-21T07:11:04;5.77;;;2.87;;
5277;SDS011;2662;51.194;6.614;2023-11-21T07:13:32;5.30;;;2.93;;
5277;SDS011;2662;51.194;6.614;2023-11-21T07:16:02;7.70;;;3.00;;
5277;SDS011;2662;51.194;6.614;2023-11-21T07:18:29;6.77;;;2.60;;
5277;SDS011;2662;51.194;6.614;2023-11-21T07:20:56;6.13;;;3.20;;
5277;SDS011;2662;51.194;6.614;2023-11-21T07:23:24;4.37;;;2.53;;
5277;SDS011;2662;51.194;6.614;2023-11-21T07:25:51;4.57;;;2.60;;
5277;SDS011;2662;51.194;6.614;2023-11-21T07:28:18;7.70;;;3.00;;
5277;SDS011;2662;51.194;6.614;2023-11-21T07:30:45;6.80;;;2.87;;
5277;SDS011;2662;51.194;6.614;2023-11-21T07:33:14;9.53;;;2.90;;
5277;SDS011;2662;51.194;6.614;2023-11-21T07:35:42;4.50;;;2.43;;
5277;SDS011;2662;51.194;6.614;2023-11-21T07:38:09;4.30;;;2.73;;
5277;SDS011;2662;51.194;6.614;2023-11-21T07:40:36;5.57;;;3.00;;
5277;SDS011;2662;51.194;6.614;2023-11-21T07:43:04;8.60;;;2.67;;
5277;SDS011;2662;51.194;6.614;2023-11-21T07:45:31;8.80;;;2.90;;
5277;SDS011;2662;51.194;6.614;2023-11-21T07:47:58;8.13;;;3.53;;
5277;SDS011;2662;51.194;6.614;2023-11-21T07:50:31;3.97;;;2.57;;
5277;SDS011;2662;51.194;6.614;2023-11-21T07:52:58;6.07;;;2.90;;
5277;SDS011;2662;51.194;6.614;2023-11-21T07:55:25;11.30;;;3.80;;
5277;SDS011;2662;51.194;6.614;2023-11-21T07:57:58;10.53;;;3.60;;
5277;SDS011;2662;51.194;6.614;2023-11-21T08:00:25;6.63;;;3.03;;
5277;SDS011;2662;51.194;6.614;2023-11-21T08:02:55;8.90;;;3.10;;
5277;SDS011;2662;51.194;6.614;2023-11-21T08:05:26;6.20;;;3.33;;
5277;SDS011;2662;51.194;6.614;2023-11-21T08:07:54;8.53;;;3.20;;
5277;SDS011;2662;51.194;6.614;2023-11-21T08:10:21;7.77;;;3.10;;
5277;SDS011;2662;51.194;6.614;2023-11-21T08:12:49;14.33;;;3.77;;
5277;SDS011;2662;51.194;6.614;2023-11-21T08:15:19;7.27;;;2.80;;
5277;SDS011;2662;51.194;6.614;2023-11-21T08:17:46;6.53;;;2.83;;
5277;SDS011;2662;51.194;6.614;2023-11-21T08:20:13;11.57;;;3.40;;
5277;SDS011;2662;51.194;6.614;2023-11-21T08:22:41;7.63;;;2.67;;
5277;SDS011;2662;51.194;6.614;2023-11-21T08:25:10;5.50;;;3.40;;
5277;SDS011;2662;51.194;6.614;2023-11-21T08:27:37;7.30;;;3.30;;
5277;SDS011;2662;51.194;6.614;2023-11-21T08:30:05;5.73;;;3.00;;
5277;SDS011;2662;51.194;6.614;2023-11-21T08:32:35;15.70;;;3.27;;
5277;SDS011;2662;51.194;6.614;2023-11-21T08:35:04;9.20;;;2.97;;
5277;SDS011;2662;51.194;6.614;2023-11-21T08:37:33;14.97;;;3.33;;
5277;SDS011;2662;51.194;6.614;2023-11-21T08:40:02;7.63;;;2.97;;
5277;SDS011;2662;51.194;6.614;2023-11-21T08:42:31;5.77;;;3.37;;
5277;SDS011;2662;51.194;6.614;2023-11-21T08:44:58;12.37;;;3.97;;
5277;SDS011;2662;51.194;6.614;2023-11-21T08:47:24;12.57;;;3.00;;
5277;SDS011;2662;51.194;6.614;2023-11-21T08:49:51;9.43;;;3.13;;
5277;SDS011;2662;51.194;6.614;2023-11-21T08:52:19;7.23;;;3.60;;
5277;SDS011;2662;51.194;6.614;2023-11-21T08:54:48;9.60;;;3.77;;
5277;SDS011;2662;51.194;6.614;2023-11-21T08:57:20;6.40;;;2.90;;
5277;SDS011;2662;51.194;6.614;2023-11-21T08:59:49;5.13;;;2.93;;
5277;SDS011;2662;51.194;6.614;2023-11-21T09:02:20;10.70;;;3.27;;
5277;SDS011;2662;51.194;6.614;2023-11-21T09:04:48;11.13;;;3.20;;
5277;SDS011;2662;51.194;6.614;2023-11-21T09:07:15;15.00;;;3.33;;
5277;SDS011;2662;51.194;6.614;2023-11-21T09:09:44;12.47;;;3.63;;
5277;SDS011;2662;51.194;6.614;2023-11-21T09:12:10;13.10;;;2.90;;
5277;SDS011;2662;51.194;6.614;2023-11-21T09:14:37;12.23;;;4.10;;
5277;SDS011;2662;51.194;6.614;2023-11-21T09:17:09;7.10;;;3.13;;
5277;SDS011;2662;51.194;6.614;2023-11-21T09:19:37;8.93;;;3.40;;
5277;SDS011;2662;51.194;6.614;2023-11-21T09:22:06;7.83;;;3.33;;
5277;SDS011;2662;51.194;6.614;2023-11-21T09:24:33;13.23;;;3.43;;
5277;SDS011;2662;51.194;6.614;2023-11-21T09:27:00;9.00;;;3.60;;
5277;SDS011;2662;51.194;6.614;2023-11-21T09:29:30;16.13;;;3.90;;
5277;SDS011;2662;51.194;6.614;2023-11-21T09:31:57;10.57;;;3.27;;
5277;SDS011;2662;51.194;6.614;2023-11-21T09:34:26;13.00;;;4.00;;
5277;SDS011;2662;51.194;6.614;2023-11-21T09:36:53;10.77;;;3.77;;
5277;SDS011;2662;51.194;6.614;2023-11-21T09:39:20;17.50;;;3.63;;
5277;SDS011;2662;51.194;6.614;2023-11-21T09:41:49;8.67;;;3.07;;
5277;SDS011;2662;51.194;6.614;2023-11-21T09:44:19;10.10;;;3.10;;
5277;SDS011;2662;51.194;6.614;2023-11-21T09:46:55;8.73;;;3.10;;
5277;SDS011;2662;51.194;6.614;2023-11-21T09:49:26;5.93;;;3.57;;
5277;SDS011;2662;51.194;6.614;2023-11-21T09:51:59;11.40;;;3.83;;
5277;SDS011;2662;51.194;6.614;2023-11-21T09:54:31;11.10;;;4.13;;
5277;SDS011;2662;51.194;6.614;2023-11-21T09:57:00;8.70;;;4.17;;
5277;SDS011;2662;51.194;6.614;2023-11-21T09:59:30;11.50;;;3.90;;
5277;SDS011;2662;51.194;6.614;2023-11-21T10:01:58;18.47;;;3.77;;
5277;SDS011;2662;51.194;6.614;2023-11-21T10:04:30;8.00;;;3.93;;
5277;SDS011;2662;51.194;6.614;2023-11-21T10:06:57;11.70;;;3.80;;
5277;SDS011;2662;51.194;6.614;2023-11-21T10:09:25;8.80;;;3.60;;
5277;SDS011;2662;51.194;6.614;2023-11-21T10:11:53;7.00;;;3.10;;
5277;SDS011;2662;51.194;6.614;2023-11-21T10:14:21;6.90;;;3.13;;
5277;SDS011;2662;51.194;6.614;2023-11-21T10:16:55;6.57;;;3.80;;
5277;SDS011;2662;51.194;6.614;2023-11-21T10:19:24;15.90;;;3.70;;
5277;SDS011;2662;51.194;6.614;2023-11-21T10:21:56;8.70;;;3.73;;
5277;SDS011;2662;51.194;6.614;2023-11-21T10:24:24;10.30;;;4.17;;
5277;SDS011;2662;51.194;6.614;2023-11-21T10:26:52;7.10;;;3.00;;
5277;SDS011;2662;51.194;6.614;2023-11-21T10:29:19;8.83;;;3.00;;
5277;SDS011;2662;51.194;6.614;2023-11-21T10:31:49;12.30;;;3.93;;
5277;SDS011;2662;51.194;6.614;2023-11-21T10:34:18;12.57;;;4.07;;
5277;SDS011;2662;51.194;6.614;2023-11-21T10:36:47;8.63;;;3.67;;
5277;SDS011;2662;51.194;6.614;2023-11-21T10:39:16;8.13;;;3.83;;
5277;SDS011;2662;51.194;6.614;2023-11-21T10:41:44;8.13;;;3.63;;
5277;SDS011;2662;51.194;6.614;2023-11-21T10:44:13;10.47;;;3.73;;
5277;SDS011;2662;51.194;6.614;2023-11-21T10:46:45;11.63;;;3.93;;
5277;SDS011;2662;51.194;6.614;2023-11-21T10:49:16;7.87;;;3.77;;
5277;SDS011;2662;51.194;6.614;2023-11-21T10:51:45;8.03;;;4.03;;
5277;SDS011;2662;51.194;6.614;2023-11-21T10:54:18;11.13;;;4.20;;
5277;SDS011;2662;51.194;6.614;2023-11-21T10:56:48;9.30;;;3.77;;
5277;SDS011;2662;51.194;6.614;2023-11-21T10:59:17;9.63;;;3.93;;
5277;SDS011;2662;51.194;6.614;2023-11-21T11:01:47;6.93;;;3.20;;
5277;SDS011;2662;51.194;6.614;2023-11-21T11:04:16;8.53;;;3.93;;
5277;SDS011;2662;51.194;6.614;2023-11-21T11:06:49;8.07;;;3.80;;
5277;SDS011;2662;51.194;6.614;2023-11-21T11:09:22;10.80;;;3.60;;
5277;SDS011;2662;51.194;6.614;2023-11-21T11:11:50;5.07;;;2.93;;
5277;SDS011;2662;51.194;6.614;2023-11-21T11:14:19;5.27;;;2.83;;
5277;SDS011;2662;51.194;6.614;2023-11-21T11:16:50;6.07;;;3.23;;
5277;SDS011;2662;51.194;6.614;2023-11-21T11:19:19;5.77;;;2.90;;
5277;SDS011;2662;51.194;6.614;2023-11-21T11:21:50;8.97;;;3.00;;
5277;SDS011;2662;51.194;6.614;2023-11-21T11:24:36;7.63;;;2.37;;
5277;SDS011;2662;51.194;6.614;2023-11-21T11:27:23;7.53;;;3.47;;
5277;SDS011;2662;51.194;6.614;2023-11-21T11:30:04;8.10;;;3.50;;
5277;SDS011;2662;51.194;6.614;2023-11-21T11:32:43;7.13;;;3.23;;
5277;SDS011;2662;51.194;6.614;2023-11-21T11:35:25;5.53;;;2.87;;
5277;SDS011;2662;51.194;6.614;2023-11-21T11:37:58;6.97;;;2.70;;
5277;SDS011;2662;51.194;6.614;2023-11-21T11:40:27;8.00;;;3.50;;
5277;SDS011;2662;51.194;6.614;2023-11-21T11:43:05;9.23;;;3.57;;
5277;SDS011;2662;51.194;6.614;2023-11-21T11:45:42;9.67;;;4.13;;
5277;SDS011;2662;51.194;6.614;2023-11-21T11:48:16;14.83;;;4.23;;
5277;SDS011;2662;51.194;6.614;2023-11-21T11:51:00;5.33;;;3.40;;
5277;SDS011;2662;51.194;6.614;2023-11-21T11:53:39;8.67;;;3.33;;
5277;SDS011;2662;51.194;6.614;2023-11-21T11:56:23;8.33;;;3.20;;
5277;SDS011;2662;51.194;6.614;2023-11-21T11:58:56;7.90;;;3.87;;
5277;SDS011;2662;51.194;6.614;2023-11-21T12:01:25;6.87;;;3.20;;
5277;SDS011;2662;51.194;6.614;2023-11-21T12:06:56;7.80;;;3.00;;
5277;SDS011;2662;51.194;6.614;2023-11-21T12:09:25;12.77;;;4.10;;
5277;SDS011;2662;51.194;6.614;2023-11-21T12:11:55;6.40;;;3.27;;
5277;SDS011;2662;51.194;6.614;2023-11-21T12:14:22;6.37;;;2.90;;
5277;SDS011;2662;51.194;6.614;2023-11-21T12:16:49;9.07;;;4.23;;
5277;SDS011;2662;51.194;6.614;2023-11-21T12:19:18;10.27;;;3.73;;
5277;SDS011;2662;51.194;6.614;2023-11-21T12:21:47;13.07;;;3.80;;
5277;SDS011;2662;51.194;6.614;2023-11-21T12:24:15;8.83;;;3.90;;
5277;SDS011;2662;51.194;6.614;2023-11-21T12:26:42;8.47;;;3.80;;
5277;SDS011;2662;51.194;6.614;2023-11-21T12:29:20;7.60;;;4.00;;
5277;SDS011;2662;51.194;6.614;2023-11-21T12:31:48;7.40;;;4.27;;
5277;SDS011;2662;51.194;6.614;2023-11-21T12:34:16;11.10;;;4.43;;
5277;SDS011;2662;51.194;6.614;2023-11-21T12:36:43;11.53;;;4.40;;
5277;SDS011;2662;51.194;6.614;2023-11-21T12:39:10;13.93;;;3.70;;
5277;SDS011;2662;51.194;6.614;2023-11-21T12:41:39;12.13;;;4.83;;
5277;SDS011;2662;51.194;6.614;2023-11-21T12:44:09;7.27;;;3.63;;
5277;SDS011;2662;51.194;6.614;2023-11-21T12:46:42;10.40;;;4.27;;
5277;SDS011;2662;51.194;6.614;2023-11-21T12:49:10;10.00;;;4.20;;
5277;SDS011;2662;51.194;6.614;2023-11-21T12:51:42;9.60;;;3.77;;
5277;SDS011;2662;51.194;6.614;2023-11-21T12:54:10;17.33;;;6.00;;
5277;SDS011;2662;51.194;6.614;2023-11-21T12:56:40;9.83;;;4.63;;
5277;SDS011;2662;51.194;6.614;2023-11-21T12:59:07;14.60;;;5.07;;
5277;SDS011;2662;51.194;6.614;2023-11-21T13:01:42;12.23;;;4.97;;
5277;SDS011;2662;51.194;6.614;2023-11-21T13:04:10;9.43;;;4.17;;
5277;SDS011;2662;51.194;6.614;2023-11-21T13:06:37;8.60;;;3.60;;
5277;SDS011;2662;51.194;6.614;2023-11-21T13:09:06;11.57;;;4.23;;
5277;SDS011;2662;51.194;6.614;2023-11-21T13:11:35;7.63;;;4.10;;
5277;SDS011;2662;51.194;6.614;2023-11-21T13:14:05;8.97;;;3.87;;
5277;SDS011;2662;51.194;6.614;2023-11-21T13:16:32;9.20;;;3.90;;
5277;SDS011;2662;51.194;6.614;2023-11-21T13:19:01;7.30;;;3.77;;
5277;SDS011;2662;51.194;6.614;2023-11-21T13:21:28;9.17;;;4.33;;
5277;SDS011;2662;51.194;6.614;2023-11-21T13:23:55;11.60;;;4.13;;
5277;SDS011;2662;51.194;6.614;2023-11-21T13:26:22;14.63;;;3.90;;
5277;SDS011;2662;51.194;6.614;2023-11-21T13:28:50;8.03;;;3.33;;
5277;SDS011;2662;51.194;6.614;2023-11-21T13:31:18;12.03;;;4.33;;
5277;SDS011;2662;51.194;6.614;2023-11-21T13:33:51;7.50;;;3.70;;
5277;SDS011;2662;51.194;6.614;2023-11-21T13:36:24;9.13;;;3.50;;
5277;SDS011;2662;51.194;6.614;2023-11-21T13:38:55;7.17;;;3.57;;
5277;SDS011;2662;51.194;6.614;2023-11-21T13:41:23;10.27;;;3.33;;
5277;SDS011;2662;51.194;6.614;2023-11-21T13:43:57;9.00;;;3.33;;
5277;SDS011;2662;51.194;6.614;2023-11-21T13:46:39;9.60;;;3.50;;
5277;SDS011;2662;51.194;6.614;2023-11-21T13:49:06;11.63;;;4.20;;
5277;SDS011;2662;51.194;6.614;2023-11-21T13:51:40;7.30;;;3.50;;
5277;SDS011;2662;51.194;6.614;2023-11-21T13:54:09;3.83;;;2.60;;
5277;SDS011;2662;51.194;6.614;2023-11-21T13:56:36;7.63;;;3.80;;
5277;SDS011;2662;51.194;6.614;2023-11-21T13:59:06;10.17;;;3.90;;
5277;SDS011;2662;51.194;6.614;2023-11-21T14:01:43;9.07;;;4.53;;
5277;SDS011;2662;51.194;6.614;2023-11-21T14:04:24;5.27;;;2.73;;
5277;SDS011;2662;51.194;6.614;2023-11-21T14:07:14;5.87;;;3.10;;
5277;SDS011;2662;51.194;6.614;2023-11-21T14:09:52;16.63;;;3.83;;
5277;SDS011;2662;51.194;6.614;2023-11-21T14:12:21;10.67;;;3.70;;
5277;SDS011;2662;51.194;6.614;2023-11-21T14:14:48;6.77;;;3.57;;
5277;SDS011;2662;51.194;6.614;2023-11-21T14:17:15;11.03;;;4.07;;
5277;SDS011;2662;51.194;6.614;2023-11-21T14:19:42;5.67;;;3.10;;
5277;SDS011;2662;51.194;6.614;2023-11-21T14:22:09;15.93;;;4.50;;
5277;SDS011;2662;51.194;6.614;2023-11-21T14:24:37;15.97;;;3.40;;
5277;SDS011;2662;51.194;6.614;2023-11-21T14:27:09;11.33;;;3.70;;
5277;SDS011;2662;51.194;6.614;2023-11-21T14:29:36;10.60;;;3.77;;
5277;SDS011;2662;51.194;6.614;2023-11-21T14:32:04;7.10;;;3.50;;
5277;SDS011;2662;51.194;6.614;2023-11-21T14:34:33;6.73;;;3.10;;
5277;SDS011;2662;51.194;6.614;2023-11-21T14:37:00;4.50;;;2.50;;
5277;SDS011;2662;51.194;6.614;2023-11-21T14:39:29;5.63;;;3.03;;
5277;SDS011;2662;51.194;6.614;2023-11-21T14:41:59;4.50;;;2.20;;
5277;SDS011;2662;51.194;6.614;2023-11-21T14:44:28;6.03;;;2.50;;
5277;SDS011;2662;51.194;6.614;2023-11-21T14:47:00;3.93;;;2.33;;
5277;SDS011;2662;51.194;6.614;2023-11-21T14:49:33;6.70;;;3.10;;
5277;SDS011;2662;51.194;6.614;2023-11-21T14:52:13;4.47;;;2.47;;
5277;SDS011;2662;51.194;6.614;2023-11-21T14:54:57;4.87;;;2.43;;
5277;SDS011;2662;51.194;6.614;2023-11-21T14:57:46;5.73;;;2.50;;
5277;SDS011;2662;51.194;6.614;2023-11-21T15:00:15;4.33;;;2.67;;
5277;SDS011;2662;51.194;6.614;2023-11-21T15:02:57;3.67;;;2.13;;
5277;SDS011;2662;51.194;6.614;2023-11-21T15:05:25;2.03;;;1.53;;
5277;SDS011;2662;51.194;6.614;2023-11-21T15:07:52;6.30;;;2.33;;
5277;SDS011;2662;51.194;6.614;2023-11-21T15:10:29;6.30;;;2.43;;
5277;SDS011;2662;51.194;6.614;2023-11-21T15:13:12;7.53;;;2.50;;
5277;SDS011;2662;51.194;6.614;2023-11-21T15:15:37;3.50;;;2.10;;
5277;SDS011;2662;51.194;6.614;2023-11-21T15:18:04;7.53;;;2.40;;
5277;SDS011;2662;51.194;6.614;2023-11-21T15:20:31;4.10;;;2.40;;
5277;SDS011;2662;51.194;6.614;2023-11-21T15:22:58;2.00;;;1.83;;
5277;SDS011;2662;51.194;6.614;2023-11-21T15:25:25;3.63;;;1.87;;
5277;SDS011;2662;51.194;6.614;2023-11-21T15:27:52;4.80;;;2.70;;